sensor_id;sensor_type;location;lat;lon;timestamp;pressure;altitude;pressure_sealevel;temperature;humidity
17072;BME280;7731;50.720;6.912;2023-02-03T00:01:31;101103.59;;;7.87;100.00
17072;BME280;7731;50.720;6.912;2023-02-03T00:04:01;101102.59;;;7.94;100.00
17072;BME280;7731;50.720;6.912;2023-02-03T00:06:34;101110.00;;;8.05;100.00
17072;BME280;7731;50.720;6.912;2023-02-03T00:09:09;101095.56;;;8.02;100.00
17072;BME280;7731;50.720;6.912;2023-02-03T00:11:39;101084.69;;;7.93;100.00
17072;BME280;7731;50.720;6.912;2023-02-03T00:14:12;101085.06;;;8.13;100.00
17072;BME280;7731;50.720;6.912;2023-02-03T00:16:43;101081.25;;;7.94;100.00
17072;BME280;7731;50.720;6.912;2023-02-03T00:19:16;101067.78;;;7.87;100.00
17072;BME280;7731;50.720;6.912;2023-02-03T00:21:46;101069.03;;;8.07;100.00
17072;BME280;7731;50.720;6.912;2023-02-03T00:24:21;101055.19;;;8.14;100.00
17072;BME280;7731;50.720;6.912;2023-02-03T00:26:51;101054.38;;;8.12;100.00
17072;BME280;7731;50.720;6.912;2023-02-03T00:29:21;101044.22;;;8.09;100.00
17072;BME280;7731;50.720;6.912;2023-02-03T00:31:53;101043.91;;;8.21;100.00
17072;BME280;7731;50.720;6.912;2023-02-03T00:34:28;101034.91;;;8.06;100.00
17072;BME280;7731;50.720;6.912;2023-02-03T00:36:58;101043.28;;;8.13;100.00
17072;BME280;7731;50.720;6.912;2023-02-03T00:39:31;101048.31;;;7.80;100.00
17072;BME280;7731;50.720;6.912;2023-02-03T00:42:06;101039.22;;;8.04;100.00
17072;BME280;7731;50.720;6.912;2023-02-03T00:44:36;101031.63;;;8.01;100.00
17072;BME280;7731;50.720;6.912;2023-02-03T00:47:08;101025.19;;;7.84;100.00
17072;BME280;7731;50.720;6.912;2023-02-03T00:49:39;101026.78;;;7.89;100.00
17072;BME280;7731;50.720;6.912;2023-02-03T00:52:09;101020.63;;;7.97;100.00
17072;BME280;7731;50.720;6.912;2023-02-03T00:54:42;101023.75;;;8.09;100.00
17072;BME280;7731;50.720;6.912;2023-02-03T00:57:12;101026.72;;;7.92;100.00
17072;BME280;7731;50.720;6.912;2023-02-03T00:59:42;101022.66;;;7.83;100.00
17072;BME280;7731;50.720;6.912;2023-02-03T01:02:12;101024.50;;;7.78;100.00
17072;BME280;7731;50.720;6.912;2023-02-03T01:04:43;101017.41;;;7.89;100.00
17072;BME280;7731;50.720;6.912;2023-02-03T01:07:13;101009.53;;;7.97;100.00
17072;BME280;7731;50.720;6.912;2023-02-03T01:09:48;101005.78;;;7.76;100.00
17072;BME280;7731;50.720;6.912;2023-02-03T01:12:18;101005.97;;;7.68;100.00
17072;BME280;7731;50.720;6.912;2023-02-03T01:14:50;101008.47;;;7.71;100.00
17072;BME280;7731;50.720;6.912;2023-02-03T01:17:20;101011.06;;;7.69;100.00
17072;BME280;7731;50.720;6.912;2023-02-03T01:19:51;100997.69;;;7.94;100.00
17072;BME280;7731;50.720;6.912;2023-02-03T01:22:23;101008.34;;;7.76;100.00
17072;BME280;7731;50.720;6.912;2023-02-03T01:24:55;101012.00;;;8.00;100.00
17072;BME280;7731;50.720;6.912;2023-02-03T01:27:26;100997.16;;;8.14;100.00
17072;BME280;7731;50.720;6.912;2023-02-03T01:29:57;100995.13;;;7.94;100.00
17072;BME280;7731;50.720;6.912;2023-02-03T01:32:29;101020.66;;;7.96;100.00
17072;BME280;7731;50.720;6.912;2023-02-03T01:35:00;101021.13;;;8.12;100.00
17072;BME280;7731;50.720;6.912;2023-02-03T01:37:30;101020.31;;;8.10;100.00
17072;BME280;7731;50.720;6.912;2023-02-03T01:40:03;101034.44;;;7.90;100.00
17072;BME280;7731;50.720;6.912;2023-02-03T01:42:33;101048.69;;;8.00;100.00
17072;BME280;7731;50.720;6.912;2023-02-03T01:45:05;101042.69;;;8.01;100.00
17072;BME280;7731;50.720;6.912;2023-02-03T01:47:48;101048.75;;;7.99;100.00
17072;BME280;7731;50.720;6.912;2023-02-03T01:50:23;101056.91;;;8.13;100.00
17072;BME280;7731;50.720;6.912;2023-02-03T01:53:00;101051.25;;;8.00;100.00
17072;BME280;7731;50.720;6.912;2023-02-03T01:55:38;101033.47;;;7.96;100.00
17072;BME280;7731;50.720;6.912;2023-02-03T01:58:15;101044.41;;;8.01;100.00
17072;BME280;7731;50.720;6.912;2023-02-03T02:00:47;101055.03;;;7.84;100.00
17072;BME280;7731;50.720;6.912;2023-02-03T02:03:24;101050.47;;;7.97;100.00
17072;BME280;7731;50.720;6.912;2023-02-03T02:06:00;101060.13;;;7.85;100.00
17072;BME280;7731;50.720;6.912;2023-02-03T02:08:34;101070.53;;;8.14;100.00
17072;BME280;7731;50.720;6.912;2023-02-03T02:11:07;101064.16;;;7.96;100.00
17072;BME280;7731;50.720;6.912;2023-02-03T02:13:42;101069.00;;;8.08;100.00
17072;BME280;7731;50.720;6.912;2023-02-03T02:16:19;101069.75;;;8.12;100.00
17072;BME280;7731;50.720;6.912;2023-02-03T02:19:31;101063.44;;;7.89;100.00
17072;BME280;7731;50.720;6.912;2023-02-03T02:22:18;101051.34;;;7.97;100.00
17072;BME280;7731;50.720;6.912;2023-02-03T02:25:19;101040.66;;;7.78;100.00
17072;BME280;7731;50.720;6.912;2023-02-03T02:31:51;101044.75;;;7.87;100.00
17072;BME280;7731;50.720;6.912;2023-02-03T02:37:23;101037.25;;;7.79;100.00
17072;BME280;7731;50.720;6.912;2023-02-03T02:40:06;101042.38;;;8.14;100.00
17072;BME280;7731;50.720;6.912;2023-02-03T02:42:52;101036.31;;;8.18;100.00
17072;BME280;7731;50.720;6.912;2023-02-03T02:45:40;101030.94;;;7.94;100.00
17072;BME280;7731;50.720;6.912;2023-02-03T02:48:24;101017.16;;;7.98;100.00
17072;BME280;7731;50.720;6.912;2023-02-03T02:50:58;101010.31;;;8.00;100.00
17072;BME280;7731;50.720;6.912;2023-02-03T02:53:35;101010.47;;;7.94;100.00
17072;BME280;7731;50.720;6.912;2023-02-03T02:56:11;101010.47;;;7.94;100.00
17072;BME280;7731;50.720;6.912;2023-02-03T02:58:46;101014.13;;;7.84;100.00
17072;BME280;7731;50.720;6.912;2023-02-03T03:01:17;101009.88;;;7.83;100.00
17072;BME280;7731;50.720;6.912;2023-02-03T03:03:51;101009.31;;;8.06;100.00
17072;BME280;7731;50.720;6.912;2023-02-03T03:06:29;100996.63;;;8.01;100.00
17072;BME280;7731;50.720;6.912;2023-02-03T03:09:05;100992.59;;;7.93;100.00
17072;BME280;7731;50.720;6.912;2023-02-03T03:11:55;100995.91;;;7.96;100.00
17072;BME280;7731;50.720;6.912;2023-02-03T03:14:30;101013.81;;;7.96;100.00
17072;BME280;7731;50.720;6.912;2023-02-03T03:17:08;101032.66;;;7.92;100.00
17072;BME280;7731;50.720;6.912;2023-02-03T03:19:49;101021.41;;;7.99;100.00
17072;BME280;7731;50.720;6.912;2023-02-03T03:22:27;101016.25;;;8.01;100.00
17072;BME280;7731;50.720;6.912;2023-02-03T03:25:05;101019.38;;;8.12;100.00
17072;BME280;7731;50.720;6.912;2023-02-03T03:27:47;101015.81;;;7.85;100.00
17072;BME280;7731;50.720;6.912;2023-02-03T03:30:27;101008.56;;;8.02;100.00
17072;BME280;7731;50.720;6.912;2023-02-03T03:32:59;101001.81;;;7.98;100.00
17072;BME280;7731;50.720;6.912;2023-02-03T03:35:40;100998.69;;;7.87;100.00
17072;BME280;7731;50.720;6.912;2023-02-03T03:38:20;100986.88;;;7.81;100.00
17072;BME280;7731;50.720;6.912;2023-02-03T03:41:02;100991.00;;;7.87;100.00
17072;BME280;7731;50.720;6.912;2023-02-03T03:43:40;101005.34;;;7.94;100.00
17072;BME280;7731;50.720;6.912;2023-02-03T03:46:16;101010.09;;;8.10;100.00
17072;BME280;7731;50.720;6.912;2023-02-03T03:48:53;101024.19;;;7.90;100.00
17072;BME280;7731;50.720;6.912;2023-02-03T03:51:33;101018.19;;;7.93;100.00
17072;BME280;7731;50.720;6.912;2023-02-03T03:54:08;101017.88;;;8.05;100.00
17072;BME280;7731;50.720;6.912;2023-02-03T03:56:45;101003.19;;;8.12;100.00
17072;BME280;7731;50.720;6.912;2023-02-03T03:59:20;100994.13;;;7.98;100.00
17072;BME280;7731;50.720;6.912;2023-02-03T04:01:53;100990.03;;;7.93;100.00
17072;BME280;7731;50.720;6.912;2023-02-03T04:04:25;100990.16;;;7.88;100.00
17072;BME280;7731;50.720;6.912;2023-02-03T04:07:05;100988.47;;;7.87;100.00
17072;BME280;7731;50.720;6.912;2023-02-03T04:09:35;101004.09;;;8.09;100.00
17072;BME280;7731;50.720;6.912;2023-02-03T04:12:22;101007.16;;;7.89;100.00
17072;BME280;7731;50.720;6.912;2023-02-03T04:14:52;101004.53;;;7.92;100.00
17072;BME280;7731;50.720;6.912;2023-02-03T04:17:22;101011.66;;;7.79;100.00
17072;BME280;7731;50.720;6.912;2023-02-03T04:19:52;101015.16;;;7.75;100.00
17072;BME280;7731;50.720;6.912;2023-02-03T04:22:25;101016.63;;;7.85;100.00
17072;BME280;7731;50.720;6.912;2023-02-03T04:24:55;101002.03;;;7.89;100.00
17072;BME280;7731;50.720;6.912;2023-02-03T04:27:27;100998.84;;;7.81;100.00
17072;BME280;7731;50.720;6.912;2023-02-03T04:29:57;100978.06;;;7.93;100.00
17072;BME280;7731;50.720;6.912;2023-02-03T04:32:31;100959.47;;;7.86;100.00
17072;BME280;7731;50.720;6.912;2023-02-03T04:35:03;100971.53;;;7.81;100.00
17072;BME280;7731;50.720;6.912;2023-02-03T04:37:36;100950.72;;;7.95;100.00
17072;BME280;7731;50.720;6.912;2023-02-03T04:40:09;100970.84;;;8.09;100.00
17072;BME280;7731;50.720;6.912;2023-02-03T04:42:40;100987.13;;;8.07;100.00
17072;BME280;7731;50.720;6.912;2023-02-03T04:45:11;100981.66;;;7.86;100.00
17072;BME280;7731;50.720;6.912;2023-02-03T04:47:41;100987.91;;;8.09;100.00
17072;BME280;7731;50.720;6.912;2023-02-03T04:50:11;100989.13;;;7.94;100.00
17072;BME280;7731;50.720;6.912;2023-02-03T04:52:44;100974.34;;;8.07;100.00
17072;BME280;7731;50.720;6.912;2023-02-03T04:55:14;100969.38;;;8.00;100.00
17072;BME280;7731;50.720;6.912;2023-02-03T04:57:47;100960.56;;;8.11;100.00
17072;BME280;7731;50.720;6.912;2023-02-03T05:00:18;100967.69;;;7.99;100.00
17072;BME280;7731;50.720;6.912;2023-02-03T05:02:49;100992.44;;;7.99;100.00
17072;BME280;7731;50.720;6.912;2023-02-03T05:05:20;101001.75;;;8.01;100.00
17072;BME280;7731;50.720;6.912;2023-02-03T05:07:52;100998.47;;;7.96;100.00
17072;BME280;7731;50.720;6.912;2023-02-03T05:10:23;101008.56;;;8.02;100.00
17072;BME280;7731;50.720;6.912;2023-02-03T05:12:53;101000.97;;;7.98;100.00
17072;BME280;7731;50.720;6.912;2023-02-03T05:15:23;101008.13;;;7.85;100.00
17072;BME280;7731;50.720;6.912;2023-02-03T05:17:55;101004.56;;;7.91;100.00
17072;BME280;7731;50.720;6.912;2023-02-03T05:20:25;101010.69;;;7.85;100.00
17072;BME280;7731;50.720;6.912;2023-02-03T05:22:58;100997.03;;;7.84;100.00
17072;BME280;7731;50.720;6.912;2023-02-03T05:25:28;100993.34;;;7.96;100.00
17072;BME280;7731;50.720;6.912;2023-02-03T05:27:59;100988.94;;;8.01;100.00
17072;BME280;7731;50.720;6.912;2023-02-03T05:30:29;100996.50;;;8.06;100.00
17072;BME280;7731;50.720;6.912;2023-02-03T05:32:59;100993.78;;;8.12;100.00
17072;BME280;7731;50.720;6.912;2023-02-03T05:35:29;100990.06;;;7.91;100.00
17072;BME280;7731;50.720;6.912;2023-02-03T05:38:02;100997.03;;;7.84;100.00
17072;BME280;7731;50.720;6.912;2023-02-03T05:40:34;100993.47;;;7.92;100.00
17072;BME280;7731;50.720;6.912;2023-02-03T05:43:18;100987.44;;;7.94;100.00
17072;BME280;7731;50.720;6.912;2023-02-03T05:45:48;100984.13;;;7.89;100.00
17072;BME280;7731;50.720;6.912;2023-02-03T05:48:18;100987.44;;;7.94;100.00
17072;BME280;7731;50.720;6.912;2023-02-03T05:50:49;100990.75;;;7.98;100.00
17072;BME280;7731;50.720;6.912;2023-02-03T05:53:22;100990.00;;;7.94;100.00
17072;BME280;7731;50.720;6.912;2023-02-03T05:55:53;100991.34;;;8.08;100.00
17072;BME280;7731;50.720;6.912;2023-02-03T05:58:24;100990.59;;;8.04;100.00
17072;BME280;7731;50.720;6.912;2023-02-03T06:00:54;100989.56;;;8.11;100.00
17072;BME280;7731;50.720;6.912;2023-02-03T06:03:24;100993.81;;;8.11;100.00
17072;BME280;7731;50.720;6.912;2023-02-03T06:05:54;100992.97;;;8.12;100.00
17072;BME280;7731;50.720;6.912;2023-02-03T06:08:27;100984.81;;;7.97;100.00
17072;BME280;7731;50.720;6.912;2023-02-03T06:10:58;100990.00;;;7.94;100.00
17072;BME280;7731;50.720;6.912;2023-02-03T06:13:28;100986.47;;;7.98;100.00
17072;BME280;7731;50.720;6.912;2023-02-03T06:15:59;101001.06;;;7.95;100.00
17072;BME280;7731;50.720;6.912;2023-02-03T06:18:29;101004.06;;;8.11;100.00
17072;BME280;7731;50.720;6.912;2023-02-03T06:21:00;101006.84;;;8.01;100.00
17072;BME280;7731;50.720;6.912;2023-02-03T06:23:33;100987.22;;;8.03;100.00
17072;BME280;7731;50.720;6.912;2023-02-03T06:26:06;100977.91;;;7.99;100.00
17072;BME280;7731;50.720;6.912;2023-02-03T06:28:37;100979.69;;;7.97;100.00
17072;BME280;7731;50.720;6.912;2023-02-03T06:31:07;100982.97;;;8.02;100.00
17072;BME280;7731;50.720;6.912;2023-02-03T06:33:38;100988.78;;;8.08;100.00
17072;BME280;7731;50.720;6.912;2023-02-03T06:36:09;101007.34;;;8.17;100.00
17072;BME280;7731;50.720;6.912;2023-02-03T06:38:42;101005.03;;;8.07;100.00
17072;BME280;7731;50.720;6.912;2023-02-03T06:41:12;101000.16;;;7.97;100.00
17072;BME280;7731;50.720;6.912;2023-02-03T06:43:43;100986.22;;;8.08;100.00
17072;BME280;7731;50.720;6.912;2023-02-03T06:46:15;100992.16;;;8.10;100.00
17072;BME280;7731;50.720;6.912;2023-02-03T06:48:48;100987.09;;;8.08;100.00
17072;BME280;7731;50.720;6.912;2023-02-03T06:51:18;100984.81;;;7.97;100.00
17072;BME280;7731;50.720;6.912;2023-02-03T06:53:51;100998.00;;;8.15;100.00
17072;BME280;7731;50.720;6.912;2023-02-03T06:56:22;100998.16;;;8.09;100.00
17072;BME280;7731;50.720;6.912;2023-02-03T06:58:53;101004.03;;;8.12;100.00
17072;BME280;7731;50.720;6.912;2023-02-03T07:01:29;101005.81;;;8.10;100.00
17072;BME280;7731;50.720;6.912;2023-02-03T07:04:05;100977.59;;;8.12;100.00
17072;BME280;7731;50.720;6.912;2023-02-03T07:06:36;100984.34;;;8.16;100.00
17072;BME280;7731;50.720;6.912;2023-02-03T07:09:11;100983.59;;;8.11;100.00
17072;BME280;7731;50.720;6.912;2023-02-03T07:11:41;100989.53;;;8.13;100.00
17072;BME280;7731;50.720;6.912;2023-02-03T07:14:12;100978.47;;;8.11;100.00
17072;BME280;7731;50.720;6.912;2023-02-03T07:16:42;100979.56;;;8.35;100.00
17072;BME280;7731;50.720;6.912;2023-02-03T07:19:12;100968.19;;;8.12;100.00
17072;BME280;7731;50.720;6.912;2023-02-03T07:21:45;100975.63;;;8.21;100.00
17072;BME280;7731;50.720;6.912;2023-02-03T07:24:20;100990.88;;;8.26;100.00
17072;BME280;7731;50.720;6.912;2023-02-03T07:26:51;100977.22;;;8.27;100.00
17072;BME280;7731;50.720;6.912;2023-02-03T07:29:24;100981.66;;;8.20;100.00
17072;BME280;7731;50.720;6.912;2023-02-03T07:31:55;100979.75;;;8.27;100.00
17072;BME280;7731;50.720;6.912;2023-02-03T07:34:28;100995.53;;;8.12;100.00
17072;BME280;7731;50.720;6.912;2023-02-03T07:36:58;100990.44;;;8.10;100.00
17072;BME280;7731;50.720;6.912;2023-02-03T07:39:32;100994.34;;;8.25;100.00
17072;BME280;7731;50.720;6.912;2023-02-03T07:42:02;101008.72;;;8.29;100.00
17072;BME280;7731;50.720;6.912;2023-02-03T07:44:33;101010.28;;;8.35;100.00
17072;BME280;7731;50.720;6.912;2023-02-03T07:47:05;101016.16;;;8.38;100.00
17072;BME280;7731;50.720;6.912;2023-02-03T07:49:39;101019.78;;;8.31;100.00
17072;BME280;7731;50.720;6.912;2023-02-03T07:52:10;101021.19;;;8.45;100.00
17072;BME280;7731;50.720;6.912;2023-02-03T07:54:43;101008.38;;;8.45;100.00
17072;BME280;7731;50.720;6.912;2023-02-03T07:57:13;101025.19;;;8.53;100.00
17072;BME280;7731;50.720;6.912;2023-02-03T07:59:44;101027.00;;;8.50;100.00
17072;BME280;7731;50.720;6.912;2023-02-03T08:02:14;101006.22;;;8.61;100.00
17072;BME280;7731;50.720;6.912;2023-02-03T08:04:48;101014.63;;;8.66;100.00
17072;BME280;7731;50.720;6.912;2023-02-03T08:07:18;101020.91;;;8.55;100.00
17072;BME280;7731;50.720;6.912;2023-02-03T08:09:51;101028.69;;;8.51;100.00
17072;BME280;7731;50.720;6.912;2023-02-03T08:12:21;101022.06;;;8.42;100.00
17072;BME280;7731;50.720;6.912;2023-02-03T08:14:53;101031.34;;;8.48;100.00
17072;BME280;7731;50.720;6.912;2023-02-03T08:17:23;101035.78;;;8.39;100.00
17072;BME280;7731;50.720;6.912;2023-02-03T08:19:54;101048.66;;;8.36;100.00
17072;BME280;7731;50.720;6.912;2023-02-03T08:22:25;101050.13;;;8.47;100.00
17072;BME280;7731;50.720;6.912;2023-02-03T08:24:58;101044.78;;;8.56;100.00
17072;BME280;7731;50.720;6.912;2023-02-03T08:27:30;101045.16;;;8.40;100.00
17072;BME280;7731;50.720;6.912;2023-02-03T08:30:01;101042.16;;;8.57;100.00
17072;BME280;7731;50.720;6.912;2023-02-03T08:32:34;101038.66;;;8.62;100.00
17072;BME280;7731;50.720;6.912;2023-02-03T08:35:08;101036.06;;;8.63;100.00
17072;BME280;7731;50.720;6.912;2023-02-03T08:37:38;101020.59;;;8.66;100.00
17072;BME280;7731;50.720;6.912;2023-02-03T08:40:14;101035.47;;;8.52;100.00
17072;BME280;7731;50.720;6.912;2023-02-03T08:42:45;101035.56;;;8.49;100.00
17072;BME280;7731;50.720;6.912;2023-02-03T08:45:15;101037.88;;;8.58;100.00
17072;BME280;7731;50.720;6.912;2023-02-03T08:47:46;101044.56;;;8.64;100.00
17072;BME280;7731;50.720;6.912;2023-02-03T08:50:16;101046.13;;;8.69;100.00
17072;BME280;7731;50.720;6.912;2023-02-03T08:52:47;101054.00;;;8.63;100.00
17072;BME280;7731;50.720;6.912;2023-02-03T08:55:20;101062.16;;;8.45;100.00
17072;BME280;7731;50.720;6.912;2023-02-03T08:57:50;101063.13;;;8.72;100.00
17072;BME280;7731;50.720;6.912;2023-02-03T09:00:21;101060.59;;;8.70;100.00
17072;BME280;7731;50.720;6.912;2023-02-03T09:02:52;101054.63;;;8.71;100.00
17072;BME280;7731;50.720;6.912;2023-02-03T09:05:22;101057.66;;;8.53;100.00
17072;BME280;7731;50.720;6.912;2023-02-03T09:07:56;101057.03;;;8.41;100.00
17072;BME280;7731;50.720;6.912;2023-02-03T09:10:30;101054.28;;;8.52;100.00
17072;BME280;7731;50.720;6.912;2023-02-03T09:13:01;101061.06;;;8.53;100.00
17072;BME280;7731;50.720;6.912;2023-02-03T09:15:31;101053.78;;;8.71;100.00
17072;BME280;7731;50.720;6.912;2023-02-03T09:18:04;101055.38;;;8.40;100.00
17072;BME280;7731;50.720;6.912;2023-02-03T09:20:34;101049.91;;;8.56;100.00
17072;BME280;7731;50.720;6.912;2023-02-03T09:23:04;101042.22;;;8.56;100.00
17072;BME280;7731;50.720;6.912;2023-02-03T09:25:37;101048.44;;;8.46;100.00
17072;BME280;7731;50.720;6.912;2023-02-03T09:28:12;101068.97;;;8.43;100.00
17072;BME280;7731;50.720;6.912;2023-02-03T09:30:45;101063.56;;;8.55;100.00
17072;BME280;7731;50.720;6.912;2023-02-03T09:33:17;101055.25;;;8.47;100.00
17072;BME280;7731;50.720;6.912;2023-02-03T09:35:52;101055.53;;;8.69;100.00
17072;BME280;7731;50.720;6.912;2023-02-03T09:38:23;101059.91;;;8.65;100.00
17072;BME280;7731;50.720;6.912;2023-02-03T09:41:05;101048.88;;;8.63;100.00
17072;BME280;7731;50.720;6.912;2023-02-03T09:43:46;101047.78;;;8.70;100.00
17072;BME280;7731;50.720;6.912;2023-02-03T09:46:25;101051.44;;;8.63;100.00
17072;BME280;7731;50.720;6.912;2023-02-03T09:49:05;101039.41;;;8.65;100.00
17072;BME280;7731;50.720;6.912;2023-02-03T09:51:43;101044.38;;;8.71;100.00
17072;BME280;7731;50.720;6.912;2023-02-03T09:54:22;101042.75;;;8.67;100.00
17072;BME280;7731;50.720;6.912;2023-02-03T09:57:00;101038.41;;;8.71;100.00
17072;BME280;7731;50.720;6.912;2023-02-03T09:59:36;101040.59;;;8.52;100.00
17072;BME280;7731;50.720;6.912;2023-02-03T10:02:32;101035.25;;;8.61;100.00
17072;BME280;7731;50.720;6.912;2023-02-03T10:05:17;101045.03;;;8.47;100.00
17072;BME280;7731;50.720;6.912;2023-02-03T10:08:01;101032.56;;;8.66;100.00
17072;BME280;7731;50.720;6.912;2023-02-03T10:10:40;101039.94;;;8.76;100.00
17072;BME280;7731;50.720;6.912;2023-02-03T10:13:22;101036.84;;;8.65;100.00
17072;BME280;7731;50.720;6.912;2023-02-03T10:16:12;101047.88;;;8.67;100.00
17072;BME280;7731;50.720;6.912;2023-02-03T10:18:53;101044.69;;;8.59;100.00
17072;BME280;7731;50.720;6.912;2023-02-03T10:21:35;101054.63;;;8.71;100.00
17072;BME280;7731;50.720;6.912;2023-02-03T10:24:14;101052.00;;;8.73;100.00
17072;BME280;7731;50.720;6.912;2023-02-03T10:26:49;101058.03;;;8.70;100.00
17072;BME280;7731;50.720;6.912;2023-02-03T10:29:33;101074.16;;;8.75;100.00
17072;BME280;7731;50.720;6.912;2023-02-03T10:32:09;101087.97;;;8.70;100.00
17072;BME280;7731;50.720;6.912;2023-02-03T10:34:46;101091.72;;;8.56;100.00
17072;BME280;7731;50.720;6.912;2023-02-03T10:37:27;101102.16;;;8.82;100.00
17072;BME280;7731;50.720;6.912;2023-02-03T10:40:02;101097.88;;;8.82;100.00
17072;BME280;7731;50.720;6.912;2023-02-03T10:42:34;101083.28;;;8.84;100.00
17072;BME280;7731;50.720;6.912;2023-02-03T10:45:20;101102.00;;;8.88;100.00
17072;BME280;7731;50.720;6.912;2023-02-03T10:47:54;101102.00;;;8.88;100.00
17072;BME280;7731;50.720;6.912;2023-02-03T10:50:26;101086.97;;;8.75;100.00
17072;BME280;7731;50.720;6.912;2023-02-03T10:53:23;101079.56;;;8.96;100.00
17072;BME280;7731;50.720;6.912;2023-02-03T10:56:07;101056.19;;;9.07;100.00
17072;BME280;7731;50.720;6.912;2023-02-03T10:58:47;101055.25;;;9.39;100.00
17072;BME280;7731;50.720;6.912;2023-02-03T11:01:25;101065.69;;;9.63;100.00
17072;BME280;7731;50.720;6.912;2023-02-03T11:04:00;101068.06;;;9.96;100.00
17072;BME280;7731;50.720;6.912;2023-02-03T11:06:33;101052.72;;;9.68;100.00
17072;BME280;7731;50.720;6.912;2023-02-03T11:09:27;101050.88;;;9.71;100.00
17072;BME280;7731;50.720;6.912;2023-02-03T11:12:12;101032.81;;;9.74;100.00
17072;BME280;7731;50.720;6.912;2023-02-03T11:14:46;101024.81;;;10.10;100.00
17072;BME280;7731;50.720;6.912;2023-02-03T11:17:22;101048.25;;;10.26;100.00
17072;BME280;7731;50.720;6.912;2023-02-03T11:19:57;101048.72;;;10.12;100.00
17072;BME280;7731;50.720;6.912;2023-02-03T11:22:37;101033.72;;;10.00;100.00
17072;BME280;7731;50.720;6.912;2023-02-03T11:25:18;101039.75;;;9.99;100.00
17072;BME280;7731;50.720;6.912;2023-02-03T11:27:49;101040.81;;;9.92;100.00
17072;BME280;7731;50.720;6.912;2023-02-03T11:30:25;101038.34;;;9.62;100.00
17072;BME280;7731;50.720;6.912;2023-02-03T11:33:15;101039.97;;;9.36;100.00
17072;BME280;7731;50.720;6.912;2023-02-03T11:35:55;101034.28;;;9.26;100.00
17072;BME280;7731;50.720;6.912;2023-02-03T11:38:31;101027.84;;;9.41;100.00
17072;BME280;7731;50.720;6.912;2023-02-03T11:41:03;101025.44;;;9.35;100.00
17072;BME280;7731;50.720;6.912;2023-02-03T11:43:33;101025.31;;;9.68;100.00
17072;BME280;7731;50.720;6.912;2023-02-03T11:46:04;101016.84;;;9.66;100.00
17072;BME280;7731;50.720;6.912;2023-02-03T11:48:49;101014.31;;;9.36;100.00
17072;BME280;7731;50.720;6.912;2023-02-03T11:51:38;101034.84;;;9.36;100.00
17072;BME280;7731;50.720;6.912;2023-02-03T11:54:26;101026.91;;;9.16;100.00
17072;BME280;7731;50.720;6.912;2023-02-03T11:57:27;101029.00;;;9.31;100.00
17072;BME280;7731;50.720;6.912;2023-02-03T12:00:15;101042.81;;;9.27;100.00
17072;BME280;7731;50.720;6.912;2023-02-03T12:06:35;101047.16;;;9.25;100.00
17072;BME280;7731;50.720;6.912;2023-02-03T12:09:26;101055.00;;;9.19;100.00
17072;BME280;7731;50.720;6.912;2023-02-03T12:12:32;101075.78;;;9.09;100.00
17072;BME280;7731;50.720;6.912;2023-02-03T12:15:35;101065.72;;;9.03;100.00
17072;BME280;7731;50.720;6.912;2023-02-03T12:18:32;101053.41;;;9.15;100.00
17072;BME280;7731;50.720;6.912;2023-02-03T12:21:36;101044.22;;;9.07;100.00
17072;BME280;7731;50.720;6.912;2023-02-03T12:24:27;101050.31;;;9.03;100.00
17072;BME280;7731;50.720;6.912;2023-02-03T12:27:19;101036.78;;;8.98;100.00
17072;BME280;7731;50.720;6.912;2023-02-03T12:29:57;101042.34;;;8.83;100.00
17072;BME280;7731;50.720;6.912;2023-02-03T12:32:37;101043.69;;;8.96;100.00
17072;BME280;7731;50.720;6.912;2023-02-03T12:35:17;101055.09;;;8.84;100.00
17072;BME280;7731;50.720;6.912;2023-02-03T12:38:00;101042.00;;;8.95;100.00
17072;BME280;7731;50.720;6.912;2023-02-03T12:40:38;101041.56;;;9.10;100.00
17072;BME280;7731;50.720;6.912;2023-02-03T12:43:23;101039.00;;;9.10;100.00
17072;BME280;7731;50.720;6.912;2023-02-03T12:46:00;101038.59;;;8.94;100.00
17072;BME280;7731;50.720;6.912;2023-02-03T12:48:44;101043.84;;;8.90;100.00
17072;BME280;7731;50.720;6.912;2023-02-03T12:51:28;101054.19;;;8.87;100.00
17072;BME280;7731;50.720;6.912;2023-02-03T12:54:14;101041.72;;;9.04;100.00
17072;BME280;7731;50.720;6.912;2023-02-03T12:56:50;101050.16;;;9.09;100.00
17072;BME280;7731;50.720;6.912;2023-02-03T12:59:27;101055.09;;;9.16;100.00
17072;BME280;7731;50.720;6.912;2023-02-03T13:02:10;101049.44;;;9.04;100.00
17072;BME280;7731;50.720;6.912;2023-02-03T13:04:51;101048.91;;;8.93;100.00
17072;BME280;7731;50.720;6.912;2023-02-03T13:07:30;101041.16;;;8.94;100.00
17072;BME280;7731;50.720;6.912;2023-02-03T13:10:17;101036.09;;;8.93;100.00
17072;BME280;7731;50.720;6.912;2023-02-03T13:12:54;101048.25;;;8.86;100.00
17072;BME280;7731;50.720;6.912;2023-02-03T13:15:29;101042.97;;;8.91;100.00
17072;BME280;7731;50.720;6.912;2023-02-03T13:18:08;101032.69;;;8.92;100.00
17072;BME280;7731;50.720;6.912;2023-02-03T13:20:45;101037.59;;;9.00;100.00
17072;BME280;7731;50.720;6.912;2023-02-03T13:23:16;101046.72;;;8.79;100.00
17072;BME280;7731;50.720;6.912;2023-02-03T13:26:20;101058.03;;;8.70;100.00
17072;BME280;7731;50.720;6.912;2023-02-03T13:29:10;101060.16;;;8.56;100.00
17072;BME280;7731;50.720;6.912;2023-02-03T13:31:59;101054.44;;;8.78;100.00
17072;BME280;7731;50.720;6.912;2023-02-03T13:35:13;101062.50;;;8.64;100.00
17072;BME280;7731;50.720;6.912;2023-02-03T13:38:41;101058.44;;;8.55;100.00
17072;BME280;7731;50.720;6.912;2023-02-03T13:41:28;101047.63;;;8.76;100.00
17072;BME280;7731;50.720;6.912;2023-02-03T13:44:02;101053.25;;;8.58;100.00
17072;BME280;7731;50.720;6.912;2023-02-03T13:46:35;101053.94;;;8.65;100.00
17072;BME280;7731;50.720;6.912;2023-02-03T13:49:07;101060.16;;;8.56;100.00
17072;BME280;7731;50.720;6.912;2023-02-03T13:51:44;101057.41;;;8.62;100.00
17072;BME280;7731;50.720;6.912;2023-02-03T13:54:24;101054.91;;;8.61;100.00
17072;BME280;7731;50.720;6.912;2023-02-03T13:57:01;101046.72;;;8.48;100.00